Estación Meteorológica Peña el Pijo (Robertgarden) [ 06/14/24 08:30:26 CEST ]

Fecha Hora Presion(HPa) Temp (°C) Humedad % Rocio (°C) Viento ( m/s) Direccion Lluvia 1Hora(mm) Lluvia 24H(mm) LLuvia Total(mm)
2008-Dec-23 01:01:12 1019.200 -3.0 82 -5.7         172.49
2008-Dec-23 02:03:25 1019.000 -3.5 83 -6.0         172.49
2008-Dec-23 03:01:18 1018.800 -3.8 84 -6.1         172.49
2008-Dec-23 04:01:14 1018.400 -4.1 85 -6.2         172.49
2008-Dec-23 05:01:16 1018.000 -4.2 86 -6.2         172.49
2008-Dec-23 06:01:13 1017.900 -4.5 86 -6.5         172.49
2008-Dec-23 07:01:14 1018.200 -4.7 87 -6.5         172.49
2008-Dec-23 08:01:14 1018.400 -5.2 86 -7.2         172.49
2008-Dec-23 09:01:13 1018.700 -5.1 87 -7.0         172.49
2008-Dec-23 10:01:18 1018.900 -0.2 88 -1.9         172.49
2008-Dec-23 11:01:13 1019.000 6.2 67 0.5         172.49
2008-Dec-23 12:01:17 1018.400 11.6 45 -0.0         172.49
2008-Dec-23 13:01:17 1017.900 15.6 34 -0.3         172.49
2008-Dec-23 14:01:12 1017.200 16.8 26 -3.0 0.9 E     172.49
2008-Dec-23 15:01:21 1016.900 16.1 24 -4.7 0.9 N     172.49
2008-Dec-23 16:01:14 1017.300 15.2 24 -5.5         172.49
2008-Dec-23 17:01:16 1017.400 12.0 29 -5.5         172.49
2008-Dec-23 18:01:13 1017.700 7.2 42 -4.9         172.49
2008-Dec-23 19:01:15 1018.200 2.6 56 -5.3         172.49
2008-Dec-23 20:01:16 1018.400 0.4 66 -5.2         172.49
2008-Dec-23 21:01:11 1018.600 -1.1 72 -5.5         172.49
2008-Dec-23 22:01:12 1018.700 -1.7 76 -5.4         172.49
2008-Dec-23 23:01:11 1018.700 -2.4 79 -5.6         172.49

Temperatura Máxima:16°    Temperatura Mínima:-5°
Presión Máxima:1019.200 Hpa    Presión Mínima:1016.900 Hpa


Volver